sensor_id;sensor_type;location;lat;lon;timestamp;pressure;altitude;pressure_sealevel;temperature;humidity
11643;BME280;5877;50.930;6.918;2024-01-27T00:05:12;102813.50;;;5.45;68.03
11643;BME280;5877;50.930;6.918;2024-01-27T00:14:55;102845.16;;;5.62;68.14
11643;BME280;5877;50.930;6.918;2024-01-27T00:24:37;102890.53;;;5.59;68.95
11643;BME280;5877;50.930;6.918;2024-01-27T00:34:19;102822.00;;;5.15;69.18
11643;BME280;5877;50.930;6.918;2024-01-27T00:44:03;102899.94;;;5.28;70.46
11643;BME280;5877;50.930;6.918;2024-01-27T08:30:18;103068.72;;;8.38;58.44
11643;BME280;5877;50.930;6.918;2024-01-27T08:40:01;103082.34;;;9.00;56.65
11643;BME280;5877;50.930;6.918;2024-01-27T08:49:44;103077.34;;;9.90;53.97
11643;BME280;5877;50.930;6.918;2024-01-27T08:59:26;103058.25;;;9.70;53.53
11643;BME280;5877;50.930;6.918;2024-01-27T09:09:08;102981.53;;;9.41;53.46
11643;BME280;5877;50.930;6.918;2024-01-27T09:18:51;103049.91;;;9.10;55.54
11643;BME280;5877;50.930;6.918;2024-01-27T09:28:36;103024.47;;;9.85;53.20
11643;BME280;5877;50.930;6.918;2024-01-27T09:38:21;103054.50;;;10.18;52.72
11643;BME280;5877;50.930;6.918;2024-01-27T09:48:05;103052.78;;;10.09;53.53
11643;BME280;5877;50.930;6.918;2024-01-27T09:57:51;103043.19;;;9.72;53.52
11643;BME280;5877;50.930;6.918;2024-01-27T10:07:34;102946.19;;;9.18;53.37
11643;BME280;5877;50.930;6.918;2024-01-27T10:18:30;103031.63;;;9.65;54.54
11643;BME280;5877;50.930;6.918;2024-01-27T10:29:26;103040.81;;;9.15;55.29
11643;BME280;5877;50.930;6.918;2024-01-27T19:06:54;102934.53;;;7.09;59.54
11643;BME280;5877;50.930;6.918;2024-01-27T19:16:39;102867.13;;;6.33;60.23
11643;BME280;5877;50.930;6.918;2024-01-27T19:26:21;102936.84;;;6.31;60.56
11643;BME280;5877;50.930;6.918;2024-01-27T19:36:05;102914.94;;;6.01;62.08
11643;BME280;5877;50.930;6.918;2024-01-27T19:45:47;102921.50;;;5.73;61.83
11643;BME280;5877;50.930;6.918;2024-01-27T19:55:30;102930.50;;;5.80;62.25
11643;BME280;5877;50.930;6.918;2024-01-27T20:05:13;102839.44;;;4.93;63.19
11643;BME280;5877;50.930;6.918;2024-01-27T20:14:56;102937.44;;;5.48;63.62
11643;BME280;5877;50.930;6.918;2024-01-27T20:24:38;102933.41;;;5.44;63.44
11643;BME280;5877;50.930;6.918;2024-01-27T20:34:20;102894.25;;;5.34;63.52
11643;BME280;5877;50.930;6.918;2024-01-27T20:44:03;102931.97;;;5.51;63.52
11643;BME280;5877;50.930;6.918;2024-01-27T20:53:45;102897.03;;;5.10;63.78
11643;BME280;5877;50.930;6.918;2024-01-27T21:03:28;102926.31;;;5.35;63.17
11643;BME280;5877;50.930;6.918;2024-01-27T21:13:10;102915.13;;;5.12;63.80
11643;BME280;5877;50.930;6.918;2024-01-27T21:22:54;102872.59;;;5.34;63.56
11643;BME280;5877;50.930;6.918;2024-01-27T21:32:38;102875.00;;;5.58;62.52
11643;BME280;5877;50.930;6.918;2024-01-27T21:42:21;102838.28;;;5.29;63.40
11643;BME280;5877;50.930;6.918;2024-01-27T21:52:07;102893.41;;;5.34;64.07
11643;BME280;5877;50.930;6.918;2024-01-27T22:01:50;102877.75;;;5.56;63.89
11643;BME280;5877;50.930;6.918;2024-01-27T22:11:32;102818.41;;;4.73;65.83
11643;BME280;5877;50.930;6.918;2024-01-27T22:21:14;102853.94;;;5.17;65.10
11643;BME280;5877;50.930;6.918;2024-01-27T22:31:05;102841.78;;;4.96;65.88
11643;BME280;5877;50.930;6.918;2024-01-27T22:40:47;102841.31;;;4.91;67.17
11643;BME280;5877;50.930;6.918;2024-01-27T22:50:29;102758.47;;;4.41;67.72
11643;BME280;5877;50.930;6.918;2024-01-27T23:00:14;102776.78;;;4.29;68.06
11643;BME280;5877;50.930;6.918;2024-01-27T23:10:10;102805.75;;;4.57;67.57
11643;BME280;5877;50.930;6.918;2024-01-27T23:19:52;102779.75;;;4.35;67.89
11643;BME280;5877;50.930;6.918;2024-01-27T23:29:34;102809.75;;;4.84;66.48
11643;BME280;5877;50.930;6.918;2024-01-27T23:39:19;102768.50;;;4.35;67.92
11643;BME280;5877;50.930;6.918;2024-01-27T23:49:01;102769.44;;;4.22;67.14
11643;BME280;5877;50.930;6.918;2024-01-27T23:58:44;102793.44;;;4.26;67.57
